Time,TemperatureF,DewpointF,PressureIn,WindDirection,WindDirectionDegrees,WindSpeedMPH,WindSpeedGustMPH,Humidity,HourlyPrecipIn,Conditions,Clouds,dailyrainin,SolarRadiationWatts/m^2,SoftwareType,DateUTC
2013-04-24 00:00:00,56.6,50.8,30.24,NW,325,0.0,2.0,81,0.00,RA,,0.00,0.0,WeatherDisplay:10.37,2013-04-23 22:00:00,
2013-04-24 00:05:00,56.9,51.1,30.24,NW,325,0.0,3.0,81,0.00,RA,,0.00,0.0,WeatherDisplay:10.37,2013-04-23 22:05:00,
2013-04-24 00:10:00,57.1,51.0,30.24,NW,326,1.0,3.0,80,0.00,SCT,,0.00,0.0,WeatherDisplay:10.37,2013-04-23 22:10:00,
2013-04-24 00:20:00,57.0,50.9,30.25,NNW,345,1.0,4.0,80,0.00,SCT,,0.00,0.0,WeatherDisplay:10.37,2013-04-23 22:20:00,
2013-04-24 00:25:00,56.8,50.6,30.25,North,355,0.0,3.0,80,0.00,SCT,,0.00,0.0,WeatherDisplay:10.37,2013-04-23 22:25:00,
2013-04-24 00:30:00,56.6,50.5,30.25,North,359,0.0,1.0,80,0.00,SCT,,0.00,0.0,WeatherDisplay:10.37,2013-04-23 22:30:00,
2013-04-24 00:35:00,56.3,50.5,30.25,North,360,0.0,1.0,81,0.00,SCT,,0.00,0.0,WeatherDisplay:10.37,2013-04-23 22:35:00,
2013-04-24 00:40:00,55.9,50.2,30.25,North,360,0.0,0.0,81,0.00,SCT,,0.00,0.0,WeatherDisplay:10.37,2013-04-23 22:40:00,
2013-04-24 00:45:00,55.9,50.5,30.25,North,360,0.0,0.0,82,0.00,SCT,,0.00,0.0,WeatherDisplay:10.37,2013-04-23 22:45:00,
2013-04-24 00:50:00,55.9,50.5,30.25,North,360,0.0,1.0,82,0.00,SCT,,0.00,0.0,WeatherDisplay:10.37,2013-04-23 22:50:00,
2013-04-24 00:55:00,55.9,50.5,30.25,North,360,0.0,1.0,82,0.00,SCT,,0.00,0.0,WeatherDisplay:10.37,2013-04-23 22:55:00,
2013-04-24 01:00:00,56.0,50.9,30.25,North,360,3.0,5.0,83,0.00,SCT,,0.00,0.0,WeatherDisplay:10.37,2013-04-23 23:00:00,
2013-04-24 01:05:00,56.1,50.7,30.25,North,360,1.0,5.0,82,0.00,SCT,,0.00,0.0,WeatherDisplay:10.37,2013-04-23 23:05:00,
2013-04-24 01:10:00,56.6,51.2,30.25,North,360,1.0,5.0,82,0.00,SCT,,0.00,0.0,WeatherDisplay:10.37,2013-04-23 23:10:00,
2013-04-24 01:15:00,57.0,51.2,30.25,North,4,3.0,7.0,81,0.00,SCT,,0.00,0.0,WeatherDisplay:10.37,2013-04-23 23:15:00,
2013-04-24 01:20:00,57.2,51.4,30.25,NNE,18,5.0,7.0,81,0.00,SCT,,0.00,0.0,WeatherDisplay:10.37,2013-04-23 23:20:00,
2013-04-24 01:25:00,57.1,51.0,30.24,NNE,27,6.0,9.0,80,0.00,SCT,,0.00,0.0,WeatherDisplay:10.37,2013-04-23 23:25:00,
2013-04-24 01:30:00,57.1,51.3,30.24,NNE,31,6.0,8.0,81,0.00,SCT,,0.00,0.0,WeatherDisplay:10.37,2013-04-23 23:30:00,
2013-04-24 01:35:00,57.0,51.2,30.24,NNE,30,5.0,8.0,81,0.00,SCT,,0.00,0.0,WeatherDisplay:10.37,2013-04-23 23:35:00,
2013-04-24 01:40:00,56.9,51.1,30.24,NNE,30,3.0,7.0,81,0.00,SCT,,0.00,0.0,WeatherDisplay:10.37,2013-04-23 23:40:00,
2013-04-24 01:45:00,56.8,51.0,30.24,NE,36,3.0,7.0,81,0.00,SCT,,0.00,0.0,WeatherDisplay:10.37,2013-04-23 23:45:00,
2013-04-24 01:50:00,56.8,51.0,30.24,NNE,31,5.0,9.0,81,0.00,SCT,,0.00,0.0,WeatherDisplay:10.37,2013-04-23 23:50:00,
2013-04-24 01:55:00,56.8,51.0,30.24,NNE,27,3.0,8.0,81,0.00,SCT,,0.00,0.0,WeatherDisplay:10.37,2013-04-23 23:55:00,
2013-04-24 02:00:00,56.7,51.3,30.24,NNE,32,5.0,8.0,82,0.00,SCT,,0.00,0.0,WeatherDisplay:10.37,2013-04-24 00:00:00,
2013-04-24 02:05:00,56.6,51.2,30.24,NE,41,6.0,7.0,82,0.00,SCT,,0.00,0.0,WeatherDisplay:10.37,2013-04-24 00:05:00,
2013-04-24 02:10:00,56.5,51.0,30.24,NE,48,5.0,7.0,82,0.00,SCT,,0.00,0.0,WeatherDisplay:10.37,2013-04-24 00:10:00,
2013-04-24 02:15:00,56.3,51.2,30.24,NE,50,5.0,7.0,83,0.00,SCT,,0.00,0.0,WeatherDisplay:10.37,2013-04-24 00:15:00,
2013-04-24 02:20:00,56.2,51.1,30.24,NE,50,3.0,7.0,83,0.00,SCT,,0.00,0.0,WeatherDisplay:10.37,2013-04-24 00:20:00,
2013-04-24 02:30:00,56.0,50.9,30.24,NE,49,6.0,8.0,83,0.00,SCT,,0.00,0.0,WeatherDisplay:10.37,2013-04-24 00:30:00,
2013-04-24 02:35:00,56.0,50.9,30.24,NE,47,3.0,7.0,83,0.00,SCT,,0.00,0.0,WeatherDisplay:10.37,2013-04-24 00:35:00,
2013-04-24 02:40:00,56.0,50.9,30.24,NE,48,6.0,8.0,83,0.00,SCT,,0.00,0.0,WeatherDisplay:10.37,2013-04-24 00:40:00,
2013-04-24 02:45:00,55.9,50.8,30.24,NE,49,6.0,8.0,83,0.00,SCT,,0.00,0.0,WeatherDisplay:10.37,2013-04-24 00:45:00,
2013-04-24 02:50:00,55.9,50.5,30.24,NE,49,6.0,8.0,82,0.00,SCT,,0.00,0.0,WeatherDisplay:10.37,2013-04-24 00:50:00,
2013-04-24 02:55:00,55.7,50.6,30.24,NE,50,6.0,8.0,83,0.00,SCT,,0.00,0.0,WeatherDisplay:10.37,2013-04-24 00:55:00,
2013-04-24 03:00:00,55.7,50.3,30.24,NE,51,5.0,8.0,82,0.00,SCT,,0.00,0.0,WeatherDisplay:10.37,2013-04-24 01:00:00,
2013-04-24 03:05:00,55.8,50.4,30.24,NE,44,3.0,7.0,82,0.00,SCT,,0.00,0.0,WeatherDisplay:10.37,2013-04-24 01:05:00,
2013-04-24 03:10:00,55.9,50.4,30.24,NE,38,5.0,7.0,82,0.00,SCT,,0.00,0.0,WeatherDisplay:10.37,2013-04-24 01:10:00,
2013-04-24 03:15:00,55.9,50.5,30.24,NE,44,6.0,10.0,82,0.00,SCT,,0.00,0.0,WeatherDisplay:10.37,2013-04-24 01:15:00,
2013-04-24 03:20:00,55.8,50.4,30.24,NE,50,5.0,8.0,82,0.00,SCT,,0.00,0.0,WeatherDisplay:10.37,2013-04-24 01:20:00,
2013-04-24 03:25:00,55.7,50.3,30.24,NE,51,5.0,8.0,82,0.00,SCT,,0.00,0.0,WeatherDisplay:10.37,2013-04-24 01:25:00,
2013-04-24 03:30:00,55.7,50.3,30.24,NE,50,6.0,8.0,82,0.00,SCT,,0.00,0.0,WeatherDisplay:10.37,2013-04-24 01:30:00,
2013-04-24 03:35:00,55.6,50.2,30.25,NE,50,3.0,7.0,82,0.00,SCT,,0.00,0.0,WeatherDisplay:10.37,2013-04-24 01:35:00,
2013-04-24 03:40:00,55.5,49.8,30.25,NE,50,1.0,6.0,81,0.00,SCT,,0.00,0.0,WeatherDisplay:10.37,2013-04-24 01:40:00,
2013-04-24 03:45:00,55.4,49.7,30.25,NE,50,1.0,5.0,81,0.00,SCT,,0.00,0.0,WeatherDisplay:10.37,2013-04-24 01:45:00,
2013-04-24 03:50:00,55.3,49.9,30.25,NE,50,2.0,5.0,82,0.00,SCT,,0.00,0.0,WeatherDisplay:10.37,2013-04-24 01:50:00,
2013-04-24 03:55:00,55.2,49.8,30.24,NE,50,3.0,6.0,82,0.00,SCT,,0.00,0.0,WeatherDisplay:10.37,2013-04-24 01:55:00,
2013-04-24 04:05:00,55.1,49.7,30.24,NE,50,0.0,4.0,82,0.00,SCT,,0.00,0.0,WeatherDisplay:10.37,2013-04-24 02:05:00,
2013-04-24 04:10:00,55.0,49.6,30.25,NE,50,3.0,6.0,82,0.00,SCT,,0.00,0.0,WeatherDisplay:10.37,2013-04-24 02:10:00,
2013-04-24 04:25:00,55.1,49.4,30.24,NE,38,3.0,7.0,81,0.00,SCT,,0.00,0.0,WeatherDisplay:10.37,2013-04-24 02:25:00,
2013-04-24 04:30:00,55.1,49.0,30.24,NE,37,2.0,7.0,80,0.00,SCT,,0.00,0.0,WeatherDisplay:10.37,2013-04-24 02:30:00,
2013-04-24 04:35:00,55.1,49.0,30.24,NNE,30,5.0,7.0,80,0.00,SCT,,0.00,0.0,WeatherDisplay:10.37,2013-04-24 02:35:00,
2013-04-24 04:45:00,55.1,49.0,30.25,NNE,28,5.0,8.0,80,0.00,SCT,,0.00,0.0,WeatherDisplay:10.37,2013-04-24 02:45:00,
2013-04-24 04:50:00,55.2,49.1,30.24,NNE,26,5.0,8.0,80,0.00,SCT,,0.00,0.0,WeatherDisplay:10.37,2013-04-24 02:50:00,
2013-04-24 04:55:00,55.2,49.1,30.25,NE,38,6.0,8.0,80,0.00,SCT,,0.00,0.0,WeatherDisplay:10.37,2013-04-24 02:55:00,
2013-04-24 05:00:00,55.1,49.0,30.24,NE,39,3.0,8.0,80,0.00,SCT,,0.00,0.0,WeatherDisplay:10.37,2013-04-24 03:00:00,
2013-04-24 05:05:00,55.2,49.1,30.24,NNE,27,5.0,7.0,80,0.00,SCT,,0.00,0.0,WeatherDisplay:10.37,2013-04-24 03:05:00,
2013-04-24 05:10:00,55.2,49.1,30.24,NNE,28,5.0,7.0,80,0.00,SCT,,0.00,0.0,WeatherDisplay:10.37,2013-04-24 03:10:00,
2013-04-24 05:15:00,55.2,49.1,30.25,NE,35,5.0,7.0,80,0.00,SCT,,0.00,0.0,WeatherDisplay:10.37,2013-04-24 03:15:00,
2013-04-24 05:20:00,55.2,49.1,30.24,NE,39,5.0,8.0,80,0.00,SCT,,0.00,0.0,WeatherDisplay:10.37,2013-04-24 03:20:00,
2013-04-24 05:25:00,55.2,49.1,30.24,NE,36,5.0,8.0,80,0.00,SCT,,0.00,0.0,WeatherDisplay:10.37,2013-04-24 03:25:00,
2013-04-24 05:35:00,55.0,48.9,30.24,NE,37,6.0,8.0,80,0.00,SCT,,0.00,0.0,WeatherDisplay:10.37,2013-04-24 03:35:00,
2013-04-24 05:40:00,54.9,48.9,30.25,NE,44,6.0,8.0,80,0.00,SCT,,0.00,0.0,WeatherDisplay:10.37,2013-04-24 03:40:00,
2013-04-24 05:45:00,54.9,48.8,30.25,NE,44,6.0,8.0,80,0.00,SCT,,0.00,0.0,WeatherDisplay:10.37,2013-04-24 03:45:00,
2013-04-24 05:55:00,54.9,48.8,30.25,NE,39,6.0,9.0,80,0.00,SCT,,0.00,0.0,WeatherDisplay:10.37,2013-04-24 03:55:00,
2013-04-24 06:00:00,54.9,48.8,30.25,NE,46,6.0,9.0,80,0.00,SCT,,0.00,0.0,WeatherDisplay:10.37,2013-04-24 04:00:00,
2013-04-24 06:05:00,54.9,48.8,30.25,NE,46,6.0,9.0,80,0.00,OVC,,0.00,0.0,WeatherDisplay:10.37,2013-04-24 04:05:00,
2013-04-24 06:15:00,54.9,48.8,30.25,NE,38,7.0,12.0,80,0.00,SCT,,0.00,0.0,WeatherDisplay:10.37,2013-04-24 04:15:00,
2013-04-24 06:25:00,55.1,48.7,30.25,NNE,28,8.0,12.0,79,0.00,SCT,,0.00,0.0,WeatherDisplay:10.37,2013-04-24 04:25:00,
2013-04-24 06:30:00,55.0,48.7,30.25,NE,43,7.0,10.0,79,0.00,SCT,,0.00,5.0,WeatherDisplay:10.37,2013-04-24 04:30:00,
2013-04-24 06:35:00,55.1,48.7,30.25,NE,45,7.0,12.0,79,0.00,SCT,,0.00,9.0,WeatherDisplay:10.37,2013-04-24 04:35:00,
2013-04-24 06:40:00,55.0,48.6,30.25,NE,42,7.0,12.0,79,0.00,SCT,,0.00,12.0,WeatherDisplay:10.37,2013-04-24 04:40:00,
2013-04-24 06:45:00,55.1,48.4,30.26,NE,44,7.0,12.0,78,0.00,SCT,,0.00,14.0,WeatherDisplay:10.37,2013-04-24 04:45:00,
2013-04-24 06:50:00,55.1,48.4,30.26,NE,46,7.0,12.0,78,0.00,SCT,,0.00,19.0,WeatherDisplay:10.37,2013-04-24 04:50:00,
2013-04-24 06:55:00,55.0,48.3,30.26,NE,38,5.0,12.0,78,0.00,SCT,,0.00,25.0,WeatherDisplay:10.37,2013-04-24 04:55:00,
2013-04-24 07:00:00,55.1,48.4,30.26,NNE,33,6.0,12.0,78,0.00,SCT,,0.00,30.0,WeatherDisplay:10.37,2013-04-24 05:00:00,
2013-04-24 07:05:00,55.2,48.5,30.26,NNE,30,6.0,12.0,78,0.00,SCT,,0.00,39.0,WeatherDisplay:10.37,2013-04-24 05:05:00,
2013-04-24 07:10:00,55.2,48.5,30.26,NNE,32,5.0,9.0,78,0.00,SCT,,0.00,46.0,WeatherDisplay:10.37,2013-04-24 05:10:00,
2013-04-24 07:15:00,55.2,48.5,30.26,NE,40,7.0,10.0,78,0.00,SCT,,0.00,51.0,WeatherDisplay:10.37,2013-04-24 05:15:00,
2013-04-24 07:20:00,55.1,48.7,30.26,NE,46,8.0,12.0,79,0.00,SCT,,0.00,60.0,WeatherDisplay:10.37,2013-04-24 05:20:00,
2013-04-24 07:25:00,55.0,48.6,30.26,NE,44,7.0,12.0,79,0.00,SCT,,0.00,67.0,WeatherDisplay:10.37,2013-04-24 05:25:00,
2013-04-24 07:30:00,55.0,48.6,30.26,NE,43,7.0,10.0,79,0.00,SCT,,0.00,70.0,WeatherDisplay:10.37,2013-04-24 05:30:00,
2013-04-24 07:35:00,55.1,48.7,30.27,NE,43,6.0,10.0,79,0.00,SCT,,0.00,77.0,WeatherDisplay:10.37,2013-04-24 05:35:00,
2013-04-24 07:40:00,55.2,48.8,30.27,NE,45,6.0,9.0,79,0.00,SCT,,0.00,84.0,WeatherDisplay:10.37,2013-04-24 05:40:00,
2013-04-24 07:45:00,55.3,48.9,30.27,NE,49,7.0,10.0,79,0.00,SCT,,0.00,95.0,WeatherDisplay:10.37,2013-04-24 05:45:00,
2013-04-24 07:55:00,55.5,49.1,30.27,NE,47,7.0,12.0,79,0.00,SCT,,0.00,109.0,WeatherDisplay:10.37,2013-04-24 05:55:00,
2013-04-24 08:00:00,55.6,49.2,30.27,NE,44,7.0,9.0,79,0.00,SCT,,0.00,123.0,WeatherDisplay:10.37,2013-04-24 06:00:00,
2013-04-24 08:05:00,55.8,49.0,30.27,NE,42,8.0,12.0,78,0.00,SCT,,0.00,135.0,WeatherDisplay:10.37,2013-04-24 06:05:00,
2013-04-24 08:10:00,56.1,49.3,30.27,NE,43,6.0,12.0,78,0.00,SCT,,0.00,155.0,WeatherDisplay:10.37,2013-04-24 06:10:00,
2013-04-24 08:15:00,56.3,49.2,30.27,NE,42,6.0,9.0,77,0.00,SCT,,0.00,179.0,WeatherDisplay:10.37,2013-04-24 06:15:00,
2013-04-24 08:20:00,56.6,49.5,30.27,NE,40,6.0,12.0,77,0.00,SCT,,0.00,197.0,WeatherDisplay:10.37,2013-04-24 06:20:00,
2013-04-24 08:25:00,56.8,49.3,30.27,NE,42,8.0,13.0,76,0.00,SCT,,0.00,211.0,WeatherDisplay:10.37,2013-04-24 06:25:00,
2013-04-24 08:30:00,57.1,49.6,30.27,NE,34,7.0,12.0,76,0.00,SCT,,0.00,197.0,WeatherDisplay:10.37,2013-04-24 06:30:00,
2013-04-24 08:35:00,57.3,49.4,30.27,NNE,32,8.0,12.0,75,0.00,SCT,,0.00,197.0,WeatherDisplay:10.37,2013-04-24 06:35:00,
2013-04-24 08:40:00,57.5,49.6,30.27,NE,42,7.0,12.0,75,0.00,SCT,,0.00,192.0,WeatherDisplay:10.37,2013-04-24 06:40:00,
2013-04-24 08:50:00,57.9,49.6,30.28,NE,51,9.0,13.0,74,0.00,SCT,,0.00,185.0,WeatherDisplay:10.37,2013-04-24 06:50:00,
2013-04-24 08:55:00,58.0,49.8,30.28,NE,45,6.0,12.0,74,0.00,SCT,,0.00,186.0,WeatherDisplay:10.37,2013-04-24 06:55:00,
2013-04-24 09:00:00,58.3,50.0,30.28,NE,42,9.0,13.0,74,0.00,SCT,,0.00,287.0,WeatherDisplay:10.37,2013-04-24 07:00:00,
2013-04-24 09:05:00,58.7,50.0,30.28,NE,45,6.0,13.0,73,0.00,SCT,,0.00,257.0,WeatherDisplay:10.37,2013-04-24 07:05:00,
2013-04-24 09:10:00,58.9,49.9,30.28,NE,48,8.0,13.0,72,0.00,SCT,,0.00,244.0,WeatherDisplay:10.37,2013-04-24 07:10:00,
2013-04-24 09:15:00,59.1,50.1,30.28,NE,47,6.0,12.0,72,0.00,SCT,,0.00,278.0,WeatherDisplay:10.37,2013-04-24 07:15:00,
2013-04-24 09:20:00,59.3,50.3,30.28,NE,46,8.0,13.0,72,0.00,SCT,,0.00,295.0,WeatherDisplay:10.37,2013-04-24 07:20:00,
2013-04-24 09:25:00,59.5,50.1,30.28,NE,49,6.0,13.0,71,0.00,SCT,,0.00,322.0,WeatherDisplay:10.37,2013-04-24 07:25:00,
2013-04-24 09:30:00,60.0,50.2,30.29,NE,48,8.0,12.0,70,0.00,SCT,,0.00,446.0,WeatherDisplay:10.37,2013-04-24 07:30:00,
2013-04-24 09:40:00,60.7,50.9,30.29,NE,49,5.0,12.0,70,0.00,SCT,,0.00,415.0,WeatherDisplay:10.37,2013-04-24 07:40:00,
2013-04-24 09:45:00,61.2,50.6,30.29,NE,46,6.0,10.0,68,0.00,SCT,,0.00,561.0,WeatherDisplay:10.37,2013-04-24 07:45:00,
2013-04-24 09:50:00,61.3,50.6,30.29,NE,51,8.0,14.0,68,0.00,SCT,,0.00,489.0,WeatherDisplay:10.37,2013-04-24 07:50:00,
2013-04-24 09:55:00,61.6,50.9,30.29,NE,45,7.0,10.0,68,0.00,SCT,,0.00,573.0,WeatherDisplay:10.37,2013-04-24 07:55:00,
2013-04-24 10:00:00,62.5,51.7,30.29,NE,42,6.0,9.0,68,0.00,SCT,,0.00,587.0,WeatherDisplay:10.37,2013-04-24 08:00:00,
2013-04-24 10:05:00,63.0,51.9,30.29,NE,47,6.0,10.0,67,0.00,SCT,,0.00,555.0,WeatherDisplay:10.37,2013-04-24 08:05:00,
2013-04-24 10:10:00,63.3,52.2,30.29,NE,50,5.0,12.0,67,0.00,SCT,,0.00,584.0,WeatherDisplay:10.37,2013-04-24 08:10:00,
2013-04-24 10:15:00,63.7,52.1,30.29,NE,40,6.0,12.0,66,0.00,SCT,,0.00,617.0,WeatherDisplay:10.37,2013-04-24 08:15:00,
2013-04-24 10:20:00,64.8,52.3,30.30,NE,37,7.0,10.0,64,0.00,SCT,,0.00,631.0,WeatherDisplay:10.37,2013-04-24 08:20:00,
2013-04-24 10:25:00,65.0,52.5,30.30,NE,44,6.0,12.0,64,0.00,SCT,,0.00,638.0,WeatherDisplay:10.37,2013-04-24 08:25:00,
2013-04-24 10:30:00,65.2,52.7,30.30,NE,45,6.0,12.0,64,0.00,SCT,,0.00,657.0,WeatherDisplay:10.37,2013-04-24 08:30:00,
2013-04-24 10:35:00,66.1,53.6,30.30,NE,34,3.0,10.0,64,0.00,FEW,,0.00,668.0,WeatherDisplay:10.37,2013-04-24 08:35:00,
2013-04-24 10:40:00,67.1,53.6,30.30,NNE,30,2.0,8.0,62,0.00,FEW,,0.00,684.0,WeatherDisplay:10.37,2013-04-24 08:40:00,
2013-04-24 10:45:00,66.1,51.8,30.30,NE,51,9.0,12.0,60,0.00,FEW,,0.00,693.0,WeatherDisplay:10.37,2013-04-24 08:45:00,
2013-04-24 10:50:00,66.0,52.2,30.30,NE,51,7.0,12.0,61,0.00,FEW,,0.00,703.0,WeatherDisplay:10.37,2013-04-24 08:50:00,
2013-04-24 10:55:00,66.5,52.2,30.30,NE,42,3.0,9.0,60,0.00,FEW,,0.00,710.0,WeatherDisplay:10.37,2013-04-24 08:55:00,
2013-04-24 11:00:00,67.0,51.7,30.31,NE,38,6.0,9.0,58,0.00,FEW,,0.00,721.0,WeatherDisplay:10.37,2013-04-24 09:00:00,
2013-04-24 11:05:00,67.5,52.7,30.31,NNE,33,0.0,6.0,59,0.00,FEW,,0.00,731.0,WeatherDisplay:10.37,2013-04-24 09:05:00,
2013-04-24 11:10:00,68.1,52.8,30.31,NNE,24,0.0,7.0,58,0.00,FEW,,0.00,742.0,WeatherDisplay:10.37,2013-04-24 09:10:00,
2013-04-24 11:15:00,67.7,51.9,30.31,NE,40,2.0,8.0,57,0.00,FEW,,0.00,756.0,WeatherDisplay:10.37,2013-04-24 09:15:00,
2013-04-24 11:20:00,68.2,51.9,30.31,NE,44,1.0,9.0,56,0.00,FEW,,0.00,765.0,WeatherDisplay:10.37,2013-04-24 09:20:00,
2013-04-24 11:25:00,69.0,52.2,30.31,NE,40,0.0,6.0,55,0.00,FEW,,0.00,773.0,WeatherDisplay:10.37,2013-04-24 09:25:00,
2013-04-24 11:30:00,68.7,51.9,30.31,NE,36,0.0,5.0,55,0.00,FEW,,0.00,780.0,WeatherDisplay:10.37,2013-04-24 09:30:00,
2013-04-24 11:35:00,70.0,53.1,30.31,NNE,29,1.0,5.0,55,0.00,FEW,,0.00,791.0,WeatherDisplay:10.37,2013-04-24 09:35:00,
2013-04-24 11:40:00,70.8,52.8,30.31,North,354,0.0,5.0,53,0.00,FEW,,0.00,802.0,WeatherDisplay:10.37,2013-04-24 09:40:00,
2013-04-24 11:45:00,71.4,52.9,30.31,NNW,348,0.0,4.0,52,0.00,FEW,,0.00,812.0,WeatherDisplay:10.37,2013-04-24 09:45:00,
2013-04-24 11:50:00,70.7,52.2,30.31,NNE,20,3.0,5.0,52,0.00,FEW,,0.00,821.0,WeatherDisplay:10.37,2013-04-24 09:50:00,
2013-04-24 11:55:00,70.6,52.6,30.31,NNE,17,0.0,5.0,53,0.00,FEW,,0.00,824.0,WeatherDisplay:10.37,2013-04-24 09:55:00,
2013-04-24 12:00:00,71.5,52.4,30.31,NNE,14,1.0,5.0,51,0.00,CLR,,0.00,844.0,WeatherDisplay:10.37,2013-04-24 10:00:00,
2013-04-24 12:05:00,71.8,51.6,30.31,NNE,13,0.0,5.0,49,0.00,CLR,,0.00,842.0,WeatherDisplay:10.37,2013-04-24 10:05:00,
2013-04-24 12:10:00,72.2,51.4,30.31,North,7,5.0,7.0,48,0.00,CLR,,0.00,860.0,WeatherDisplay:10.37,2013-04-24 10:10:00,
2013-04-24 12:15:00,71.6,52.0,30.31,North,3,2.0,5.0,50,0.00,CLR,,0.00,856.0,WeatherDisplay:10.37,2013-04-24 10:15:00,
2013-04-24 12:20:00,72.4,51.6,30.31,North,358,1.0,8.0,48,0.00,CLR,,0.00,805.0,WeatherDisplay:10.37,2013-04-24 10:20:00,
2013-04-24 12:25:00,73.2,50.6,30.31,North,351,0.0,8.0,45,0.00,FEW,,0.00,731.0,WeatherDisplay:10.37,2013-04-24 10:25:00,
2013-04-24 12:30:00,72.2,50.2,30.31,NW,322,3.0,6.0,46,0.00,FEW,,0.00,754.0,WeatherDisplay:10.37,2013-04-24 10:30:00,
2013-04-24 12:35:00,72.7,50.8,30.31,NW,312,0.0,8.0,46,0.00,FEW,,0.00,707.0,WeatherDisplay:10.37,2013-04-24 10:35:00,
2013-04-24 12:40:00,73.2,51.2,30.30,NNW,332,0.0,4.0,46,0.00,FEW,,0.00,821.0,WeatherDisplay:10.37,2013-04-24 10:40:00,
2013-04-24 12:45:00,74.0,50.7,30.31,NW,321,0.0,3.0,44,0.00,FEW,,0.00,865.0,WeatherDisplay:10.37,2013-04-24 10:45:00,
2013-04-24 12:50:00,74.5,51.2,30.31,NNW,327,0.0,6.0,44,0.00,CLR,,0.00,805.0,WeatherDisplay:10.37,2013-04-24 10:50:00,
2013-04-24 12:55:00,75.1,51.7,30.31,NNW,331,0.0,0.0,44,0.00,CLR,,0.00,758.0,WeatherDisplay:10.37,2013-04-24 10:55:00,
2013-04-24 13:00:00,75.1,50.5,30.30,NNW,333,0.0,1.0,42,0.00,FEW,,0.00,770.0,WeatherDisplay:10.37,2013-04-24 11:00:00,
2013-04-24 13:05:00,76.0,51.9,30.30,NNW,327,1.0,5.0,43,0.00,FEW,,0.00,758.0,WeatherDisplay:10.37,2013-04-24 11:05:00,
2013-04-24 13:10:00,74.8,50.8,30.30,WNW,290,0.0,4.0,43,0.00,FEW,,0.00,759.0,WeatherDisplay:10.37,2013-04-24 11:10:00,
2013-04-24 13:15:00,74.4,50.5,30.30,West,261,1.0,3.0,43,0.00,FEW,,0.00,773.0,WeatherDisplay:10.37,2013-04-24 11:15:00,
2013-04-24 13:20:00,74.9,51.5,30.30,SSW,192,1.0,8.0,44,0.00,FEW,,0.00,703.0,WeatherDisplay:10.37,2013-04-24 11:20:00,
2013-04-24 13:25:00,73.5,49.6,30.30,South,187,2.0,8.0,43,0.00,FEW,,0.00,772.0,WeatherDisplay:10.37,2013-04-24 11:25:00,
2013-04-24 13:30:00,74.3,49.7,30.30,South,184,1.0,5.0,42,0.00,FEW,,0.00,751.0,WeatherDisplay:10.37,2013-04-24 11:30:00,
2013-04-24 13:35:00,74.3,49.7,30.30,South,178,3.0,6.0,42,0.00,CLR,,0.00,782.0,WeatherDisplay:10.37,2013-04-24 11:35:00,
2013-04-24 13:40:00,73.5,49.0,30.30,South,183,2.0,6.0,42,0.00,CLR,,0.00,775.0,WeatherDisplay:10.37,2013-04-24 11:40:00,
2013-04-24 13:45:00,74.2,50.3,30.30,South,186,1.0,5.0,43,0.00,CLR,,0.00,793.0,WeatherDisplay:10.37,2013-04-24 11:45:00,
2013-04-24 13:50:00,75.3,50.6,30.29,South,187,0.0,5.0,42,0.00,CLR,,0.00,796.0,WeatherDisplay:10.37,2013-04-24 11:50:00,
2013-04-24 13:55:00,75.4,50.1,30.29,South,189,1.0,4.0,41,0.00,CLR,,0.00,830.0,WeatherDisplay:10.37,2013-04-24 11:55:00,
2013-04-24 14:00:00,75.1,48.5,30.29,South,189,0.0,3.0,39,0.00,CLR,,0.00,786.0,WeatherDisplay:10.37,2013-04-24 12:00:00,
2013-04-24 14:05:00,76.2,50.7,30.29,South,189,1.0,3.0,41,0.00,CLR,,0.00,879.0,WeatherDisplay:10.37,2013-04-24 12:05:00,
2013-04-24 14:10:00,76.6,50.4,30.28,South,180,3.0,7.0,40,0.00,CLR,,0.00,503.0,WeatherDisplay:10.37,2013-04-24 12:10:00,
2013-04-24 14:15:00,74.5,49.9,30.28,South,178,3.0,7.0,42,0.00,FEW,,0.00,547.0,WeatherDisplay:10.37,2013-04-24 12:15:00,
2013-04-24 14:20:00,74.1,49.5,30.28,South,185,5.0,8.0,42,0.00,SCT,,0.00,647.0,WeatherDisplay:10.37,2013-04-24 12:20:00,
2013-04-24 14:25:00,74.2,50.3,30.28,South,185,2.0,8.0,43,0.00,FEW,,0.00,772.0,WeatherDisplay:10.37,2013-04-24 12:25:00,
2013-04-24 14:30:00,75.0,50.3,30.28,South,178,2.0,6.0,42,0.00,CLR,,0.00,786.0,WeatherDisplay:10.37,2013-04-24 12:30:00,
2013-04-24 14:35:00,75.5,50.1,30.28,South,177,0.0,6.0,41,0.00,CLR,,0.00,751.0,WeatherDisplay:10.37,2013-04-24 12:35:00,
2013-04-24 14:40:00,75.6,50.2,30.28,South,179,2.0,4.0,41,0.00,CLR,,0.00,802.0,WeatherDisplay:10.37,2013-04-24 12:40:00,
2013-04-24 14:45:00,76.1,50.0,30.28,South,178,1.0,3.0,40,0.00,CLR,,0.00,657.0,WeatherDisplay:10.37,2013-04-24 12:45:00,
2013-04-24 14:50:00,75.8,50.4,30.28,South,178,0.0,1.0,41,0.00,CLR,,0.00,468.0,WeatherDisplay:10.37,2013-04-24 12:50:00,
2013-04-24 14:55:00,75.8,50.4,30.28,South,178,0.0,2.0,41,0.00,SCT,,0.00,541.0,WeatherDisplay:10.37,2013-04-24 12:55:00,
2013-04-24 15:00:00,76.3,50.2,30.27,South,178,2.0,5.0,40,0.00,FEW,,0.00,701.0,WeatherDisplay:10.37,2013-04-24 13:00:00,
2013-04-24 15:05:00,75.9,51.2,30.27,South,178,0.0,4.0,42,0.00,CLR,,0.00,728.0,WeatherDisplay:10.37,2013-04-24 13:05:00,
2013-04-24 15:10:00,75.9,50.5,30.27,South,181,3.0,6.0,41,0.00,CLR,,0.00,715.0,WeatherDisplay:10.37,2013-04-24 13:10:00,
2013-04-24 15:15:00,75.5,50.1,30.27,South,187,1.0,6.0,41,0.00,CLR,,0.00,645.0,WeatherDisplay:10.37,2013-04-24 13:15:00,
2013-04-24 15:20:00,76.5,51.1,30.27,South,190,1.0,4.0,41,0.00,CLR,,0.00,640.0,WeatherDisplay:10.37,2013-04-24 13:20:00,
2013-04-24 15:25:00,76.5,51.1,30.27,South,191,3.0,6.0,41,0.00,CLR,,0.00,626.0,WeatherDisplay:10.37,2013-04-24 13:25:00,
2013-04-24 15:30:00,76.3,49.6,30.27,SSW,193,2.0,6.0,39,0.00,CLR,,0.00,432.0,WeatherDisplay:10.37,2013-04-24 13:30:00,
2013-04-24 15:35:00,76.0,49.9,30.27,SSW,194,1.0,4.0,40,0.00,FEW,,0.00,383.0,WeatherDisplay:10.37,2013-04-24 13:35:00,
2013-04-24 15:40:00,76.2,50.1,30.27,SSW,194,2.0,6.0,40,0.00,SCT,,0.00,422.0,WeatherDisplay:10.37,2013-04-24 13:40:00,
2013-04-24 15:45:00,76.0,51.9,30.27,West,278,1.0,9.0,43,0.00,FEW,,0.00,466.0,WeatherDisplay:10.37,2013-04-24 13:45:00,
2013-04-24 15:50:00,75.7,52.3,30.26,WNW,288,5.0,8.0,44,0.00,CLR,,0.00,515.0,WeatherDisplay:10.37,2013-04-24 13:50:00,
2013-04-24 15:55:00,76.0,52.5,30.26,WNW,284,1.0,6.0,44,0.00,CLR,,0.00,387.0,WeatherDisplay:10.37,2013-04-24 13:55:00,
2013-04-24 16:00:00,75.1,51.7,30.26,WSW,254,1.0,9.0,44,0.00,FEW,,0.00,332.0,WeatherDisplay:10.37,2013-04-24 14:00:00,
2013-04-24 16:05:00,75.3,52.5,30.26,SW,236,3.0,6.0,45,0.00,SCT,,0.00,316.0,WeatherDisplay:10.37,2013-04-24 14:05:00,
2013-04-24 16:10:00,75.2,53.0,30.26,West,279,1.0,7.0,46,0.00,SCT,,0.00,338.0,WeatherDisplay:10.37,2013-04-24 14:10:00,
2013-04-24 16:15:00,75.0,51.6,30.26,WNW,291,5.0,8.0,44,0.00,FEW,,0.00,373.0,WeatherDisplay:10.37,2013-04-24 14:15:00,
2013-04-24 16:20:00,74.6,52.5,30.26,WNW,288,5.0,12.0,46,0.00,FEW,,0.00,338.0,WeatherDisplay:10.37,2013-04-24 14:20:00,
2013-04-24 16:25:00,74.4,51.7,30.26,WNW,283,2.0,9.0,45,0.00,FEW,,0.00,315.0,WeatherDisplay:10.37,2013-04-24 14:25:00,
2013-04-24 16:30:00,74.5,52.4,30.26,West,279,3.0,6.0,46,0.00,FEW,,0.00,309.0,WeatherDisplay:10.37,2013-04-24 14:30:00,
2013-04-24 16:35:00,74.3,52.2,30.25,West,261,2.0,8.0,46,0.00,FEW,,0.00,341.0,WeatherDisplay:10.37,2013-04-24 14:35:00,
2013-04-24 16:40:00,74.2,52.1,30.25,West,267,2.0,5.0,46,0.00,CLR,,0.00,489.0,WeatherDisplay:10.37,2013-04-24 14:40:00,
2013-04-24 16:45:00,74.4,52.2,30.25,West,272,2.0,8.0,46,0.00,CLR,,0.00,394.0,WeatherDisplay:10.37,2013-04-24 14:45:00,
2013-04-24 16:50:00,74.6,52.4,30.25,West,267,1.0,6.0,46,0.00,CLR,,0.00,563.0,WeatherDisplay:10.37,2013-04-24 14:50:00,
2013-04-24 16:55:00,75.0,51.6,30.25,WSW,257,2.0,9.0,44,0.00,CLR,,0.00,575.0,WeatherDisplay:10.37,2013-04-24 14:55:00,
2013-04-24 17:00:00,75.1,52.3,30.25,West,263,1.0,7.0,45,0.00,CLR,,0.00,332.0,WeatherDisplay:10.37,2013-04-24 15:00:00,
2013-04-24 17:05:00,75.3,51.9,30.25,West,270,1.0,5.0,44,0.00,CLR,,0.00,432.0,WeatherDisplay:10.37,2013-04-24 15:05:00,
2013-04-24 17:10:00,75.4,51.3,30.25,WNW,283,5.0,7.0,43,0.00,CLR,,0.00,538.0,WeatherDisplay:10.37,2013-04-24 15:10:00,
2013-04-24 17:15:00,75.6,51.5,30.25,WNW,299,5.0,7.0,43,0.00,CLR,,0.00,475.0,WeatherDisplay:10.37,2013-04-24 15:15:00,
2013-04-24 17:20:00,75.2,48.6,30.25,WNW,292,1.0,9.0,39,0.00,CLR,,0.00,353.0,WeatherDisplay:10.37,2013-04-24 15:20:00,
2013-04-24 17:25:00,75.3,51.3,30.25,West,281,3.0,7.0,43,0.00,CLR,,0.00,410.0,WeatherDisplay:10.37,2013-04-24 15:25:00,
2013-04-24 17:30:00,75.3,53.6,30.25,WNW,285,1.0,7.0,47,0.00,CLR,,0.00,464.0,WeatherDisplay:10.37,2013-04-24 15:30:00,
2013-04-24 17:35:00,75.1,54.1,30.25,WNW,297,1.0,7.0,48,0.00,CLR,,0.00,279.0,WeatherDisplay:10.37,2013-04-24 15:35:00,
2013-04-24 17:40:00,74.4,52.9,30.25,WNW,288,3.0,6.0,47,0.00,CLR,,0.00,243.0,WeatherDisplay:10.37,2013-04-24 15:40:00,
2013-04-24 17:50:00,73.9,54.7,30.24,NW,314,3.0,7.0,51,0.00,CLR,,0.00,163.0,WeatherDisplay:10.37,2013-04-24 15:50:00,
2013-04-24 17:55:00,73.2,54.5,30.24,NW,319,6.0,8.0,52,0.00,CLR,,0.00,148.0,WeatherDisplay:10.37,2013-04-24 15:55:00,
2013-04-24 18:00:00,72.6,53.9,30.24,NW,316,2.0,9.0,52,0.00,CLR,,0.00,142.0,WeatherDisplay:10.37,2013-04-24 16:00:00,
2013-04-24 18:05:00,72.3,53.7,30.24,NW,310,1.0,8.0,52,0.00,CLR,,0.00,163.0,WeatherDisplay:10.37,2013-04-24 16:05:00,
2013-04-24 18:10:00,72.3,53.2,30.24,NW,305,2.0,7.0,51,0.00,CLR,,0.00,197.0,WeatherDisplay:10.37,2013-04-24 16:10:00,
2013-04-24 18:15:00,72.2,53.1,30.24,NW,308,5.0,8.0,51,0.00,CLR,,0.00,160.0,WeatherDisplay:10.37,2013-04-24 16:15:00,
2013-04-24 18:20:00,72.1,53.0,30.24,NW,306,3.0,6.0,51,0.00,CLR,,0.00,149.0,WeatherDisplay:10.37,2013-04-24 16:20:00,
2013-04-24 18:25:00,72.1,53.5,30.24,WNW,300,1.0,4.0,52,0.00,CLR,,0.00,218.0,WeatherDisplay:10.37,2013-04-24 16:25:00,
2013-04-24 18:30:00,72.3,53.2,30.24,WNW,301,3.0,7.0,51,0.00,CLR,,0.00,142.0,WeatherDisplay:10.37,2013-04-24 16:30:00,
2013-04-24 18:35:00,72.3,52.6,30.24,WNW,302,3.0,7.0,50,0.00,CLR,,0.00,113.0,WeatherDisplay:10.37,2013-04-24 16:35:00,
2013-04-24 18:40:00,72.1,52.4,30.24,NW,304,2.0,6.0,50,0.00,CLR,,0.00,97.0,WeatherDisplay:10.37,2013-04-24 16:40:00,
2013-04-24 18:45:00,72.0,52.9,30.24,NW,305,1.0,3.0,51,0.00,CLR,,0.00,88.0,WeatherDisplay:10.37,2013-04-24 16:45:00,
2013-04-24 18:50:00,72.0,52.9,30.24,NW,306,0.0,2.0,51,0.00,CLR,,0.00,86.0,WeatherDisplay:10.37,2013-04-24 16:50:00,
2013-04-24 18:55:00,72.0,53.4,30.24,NW,306,0.0,0.0,52,0.00,CLR,,0.00,81.0,WeatherDisplay:10.37,2013-04-24 16:55:00,
2013-04-24 19:00:00,71.9,53.3,30.24,NW,306,0.0,0.0,52,0.00,CLR,,0.00,77.0,WeatherDisplay:10.37,2013-04-24 17:00:00,
2013-04-24 19:10:00,71.7,52.6,30.24,NW,306,0.0,3.0,51,0.00,OVC,,0.00,69.0,WeatherDisplay:10.37,2013-04-24 17:10:00,
2013-04-24 19:15:00,71.6,52.5,30.24,NW,306,0.0,0.0,51,0.00,OVC,,0.00,76.0,WeatherDisplay:10.37,2013-04-24 17:15:00,
2013-04-24 19:20:00,71.6,52.0,30.24,NW,306,0.0,4.0,50,0.00,OVC,,0.00,63.0,WeatherDisplay:10.37,2013-04-24 17:20:00,
2013-04-24 19:25:00,71.6,52.5,30.23,NW,306,0.0,3.0,51,0.00,OVC,,0.00,49.0,WeatherDisplay:10.37,2013-04-24 17:25:00,
2013-04-24 19:30:00,71.3,51.7,30.23,NW,308,2.0,5.0,50,0.00,OVC,,0.00,42.0,WeatherDisplay:10.37,2013-04-24 17:30:00,
2013-04-24 19:35:00,71.1,51.5,30.23,NW,310,2.0,4.0,50,0.00,OVC,,0.00,35.0,WeatherDisplay:10.37,2013-04-24 17:35:00,
2013-04-24 19:40:00,70.8,51.8,30.23,NW,315,2.0,5.0,51,0.00,OVC,,0.00,28.0,WeatherDisplay:10.37,2013-04-24 17:40:00,
2013-04-24 19:45:00,70.8,51.7,30.23,NW,320,2.0,4.0,51,0.00,OVC,,0.00,21.0,WeatherDisplay:10.37,2013-04-24 17:45:00,
2013-04-24 19:50:00,70.6,52.1,30.23,NW,320,0.0,3.0,52,0.00,OVC,,0.00,14.0,WeatherDisplay:10.37,2013-04-24 17:50:00,
2013-04-24 19:55:00,70.5,52.0,30.24,NW,320,0.0,0.0,52,0.00,OVC,,0.00,11.0,WeatherDisplay:10.37,2013-04-24 17:55:00,
2013-04-24 20:00:00,70.4,52.4,30.24,NW,320,0.0,0.0,53,0.00,OVC,,0.00,7.0,WeatherDisplay:10.37,2013-04-24 18:00:00,
2013-04-24 20:05:00,70.3,52.9,30.24,NW,320,0.0,1.0,54,0.00,OVC,,0.00,0.0,WeatherDisplay:10.37,2013-04-24 18:05:00,
2013-04-24 20:10:00,69.9,53.0,30.24,NW,321,1.0,6.0,55,0.00,OVC,,0.00,0.0,WeatherDisplay:10.37,2013-04-24 18:10:00,
2013-04-24 20:15:00,69.4,52.5,30.24,NW,323,2.0,4.0,55,0.00,OVC,,0.00,0.0,WeatherDisplay:10.37,2013-04-24 18:15:00,
2013-04-24 20:20:00,69.0,51.7,30.24,NW,324,1.0,5.0,54,0.00,OVC,,0.00,0.0,WeatherDisplay:10.37,2013-04-24 18:20:00,
2013-04-24 20:25:00,68.9,51.6,30.25,NW,325,0.0,3.0,54,0.00,OVC,,0.00,0.0,WeatherDisplay:10.37,2013-04-24 18:25:00,
2013-04-24 20:30:00,68.8,51.5,30.25,NW,325,0.0,3.0,54,0.00,OVC,,0.00,0.0,WeatherDisplay:10.37,2013-04-24 18:30:00,
2013-04-24 20:35:00,68.8,52.0,30.25,NW,325,0.0,2.0,55,0.00,,,0.00,0.0,WeatherDisplay:10.37,2013-04-24 18:35:00,
2013-04-24 20:40:00,68.7,51.9,30.25,NW,325,0.0,1.0,55,0.00,,,0.00,0.0,WeatherDisplay:10.37,2013-04-24 18:40:00,
2013-04-24 20:45:00,68.6,51.8,30.25,NW,325,1.0,4.0,55,0.00,,,0.00,0.0,WeatherDisplay:10.37,2013-04-24 18:45:00,
2013-04-24 20:50:00,68.6,51.3,30.25,NW,325,0.0,3.0,54,0.00,,,0.00,0.0,WeatherDisplay:10.37,2013-04-24 18:50:00,
2013-04-24 20:55:00,68.6,51.3,30.25,NW,326,0.0,0.0,54,0.00,,,0.00,0.0,WeatherDisplay:10.37,2013-04-24 18:55:00,
2013-04-24 21:00:00,68.6,51.3,30.26,NW,326,0.0,1.0,54,0.00,,,0.00,0.0,WeatherDisplay:10.37,2013-04-24 19:00:00,
2013-04-24 21:05:00,68.5,51.2,30.26,NW,326,0.0,1.0,54,0.00,,,0.00,0.0,WeatherDisplay:10.37,2013-04-24 19:05:00,
2013-04-24 21:10:00,68.4,51.1,30.26,NW,325,0.0,0.0,54,0.00,,,0.00,0.0,WeatherDisplay:10.37,2013-04-24 19:10:00,
2013-04-24 21:15:00,68.1,51.8,30.26,NW,326,0.0,0.0,56,0.00,,,0.00,0.0,WeatherDisplay:10.37,2013-04-24 19:15:00,
2013-04-24 21:20:00,67.8,51.5,30.26,NW,326,2.0,4.0,56,0.00,,,0.00,0.0,WeatherDisplay:10.37,2013-04-24 19:20:00,
2013-04-24 21:25:00,67.9,51.6,30.26,NNW,327,0.0,4.0,56,0.00,,,0.00,0.0,WeatherDisplay:10.37,2013-04-24 19:25:00,
2013-04-24 21:30:00,67.4,51.6,30.26,NNW,328,0.0,3.0,57,0.00,,,0.00,0.0,WeatherDisplay:10.37,2013-04-24 19:30:00,
2013-04-24 21:35:00,67.3,51.5,30.26,NNW,329,2.0,4.0,57,0.00,,,0.00,0.0,WeatherDisplay:10.37,2013-04-24 19:35:00,
2013-04-24 21:40:00,67.1,51.4,30.26,NNW,329,0.0,2.0,57,0.00,,,0.00,0.0,WeatherDisplay:10.37,2013-04-24 19:40:00,
2013-04-24 21:45:00,66.5,52.2,30.26,NNW,329,0.0,3.0,60,0.00,,,0.00,0.0,WeatherDisplay:10.37,2013-04-24 19:45:00,
2013-04-24 21:50:00,66.4,52.1,30.26,NNW,329,2.0,4.0,60,0.00,,,0.00,0.0,WeatherDisplay:10.37,2013-04-24 19:50:00,
2013-04-24 21:55:00,66.8,52.5,30.26,NNW,332,0.0,4.0,60,0.00,,,0.00,0.0,WeatherDisplay:10.37,2013-04-24 19:55:00,
2013-04-24 22:00:00,66.8,52.5,30.26,NNW,338,3.0,5.0,60,0.00,,,0.00,0.0,WeatherDisplay:10.37,2013-04-24 20:00:00,
2013-04-24 22:05:00,66.8,52.5,30.26,NNW,348,3.0,5.0,60,0.00,,,0.00,0.0,WeatherDisplay:10.37,2013-04-24 20:05:00,
2013-04-24 22:10:00,67.1,51.4,30.25,North,6,3.0,5.0,57,0.00,,,0.00,0.0,WeatherDisplay:10.37,2013-04-24 20:10:00,
2013-04-24 22:15:00,67.5,51.2,30.25,NNE,19,2.0,6.0,56,0.00,,,0.00,0.0,WeatherDisplay:10.37,2013-04-24 20:15:00,
2013-04-24 22:20:00,67.6,50.8,30.25,NNE,22,1.0,5.0,55,0.00,,,0.00,0.0,WeatherDisplay:10.37,2013-04-24 20:20:00,
2013-04-24 22:25:00,67.5,51.2,30.25,NNE,22,1.0,5.0,56,0.00,,,0.00,0.0,WeatherDisplay:10.37,2013-04-24 20:25:00,
2013-04-24 22:30:00,67.1,50.9,30.25,NNE,22,2.0,5.0,56,0.00,,,0.00,0.0,WeatherDisplay:10.37,2013-04-24 20:30:00,
2013-04-24 22:35:00,66.9,51.2,30.25,NNE,22,1.0,4.0,57,0.00,,,0.00,0.0,WeatherDisplay:10.37,2013-04-24 20:35:00,
2013-04-24 22:40:00,67.0,50.8,30.25,NNE,22,1.0,5.0,56,0.00,,,0.00,0.0,WeatherDisplay:10.37,2013-04-24 20:40:00,
2013-04-24 22:45:00,67.1,50.9,30.25,NNE,22,1.0,4.0,56,0.00,,,0.00,0.0,WeatherDisplay:10.37,2013-04-24 20:45:00,
2013-04-24 22:50:00,67.0,50.8,30.25,NNE,22,0.0,4.0,56,0.00,,,0.00,0.0,WeatherDisplay:10.37,2013-04-24 20:50:00,
2013-04-24 22:55:00,67.0,50.8,30.25,NNE,22,0.0,1.0,56,0.00,,,0.00,0.0,WeatherDisplay:10.37,2013-04-24 20:55:00,
2013-04-24 23:00:00,66.9,51.2,30.25,NNE,22,0.0,1.0,57,0.00,,,0.00,0.0,WeatherDisplay:10.37,2013-04-24 21:00:00,
2013-04-24 23:05:00,66.4,51.6,30.25,NNE,22,1.0,3.0,59,0.00,,,0.00,0.0,WeatherDisplay:10.37,2013-04-24 21:05:00,
2013-04-24 23:10:00,66.1,51.8,30.25,NNE,22,3.0,4.0,60,0.00,,,0.00,0.0,WeatherDisplay:10.37,2013-04-24 21:10:00,
2013-04-24 23:15:00,66.0,52.2,30.25,NNE,22,2.0,5.0,61,0.00,,,0.00,0.0,WeatherDisplay:10.37,2013-04-24 21:15:00,
2013-04-24 23:20:00,65.9,52.1,30.24,NNE,22,5.0,6.0,61,0.00,,,0.00,0.0,WeatherDisplay:10.37,2013-04-24 21:20:00,
2013-04-24 23:25:00,65.9,52.1,30.24,NNE,23,5.0,6.0,61,0.00,,,0.00,0.0,WeatherDisplay:10.37,2013-04-24 21:25:00,
2013-04-24 23:30:00,66.1,52.2,30.24,NNE,29,6.0,8.0,61,0.00,,,0.00,0.0,WeatherDisplay:10.37,2013-04-24 21:30:00,
2013-04-24 23:35:00,66.0,52.2,30.24,NE,35,5.0,7.0,61,0.00,,,0.00,0.0,WeatherDisplay:10.37,2013-04-24 21:35:00,
2013-04-24 23:40:00,65.9,52.5,30.24,NE,36,5.0,7.0,62,0.00,,,0.00,0.0,WeatherDisplay:10.37,2013-04-24 21:40:00,
2013-04-24 23:45:00,66.0,52.6,30.24,NE,36,5.0,6.0,62,0.00,,,0.00,0.0,WeatherDisplay:10.37,2013-04-24 21:45:00,
2013-04-24 23:50:00,65.9,52.5,30.24,NE,35,5.0,7.0,62,0.00,,,0.00,0.0,WeatherDisplay:10.37,2013-04-24 21:50:00,